Time;durP1;ratioP1;P1;durP2;ratioP2;P2;SDS_P1;SDS_P2;PMS_P1;PMS_P2;Temp;Humidity;BMP_temperature;BMP_pressure;BME280_temperature;BME280_humidity;BME280_pressure;Samples;Min_cycle;Max_cycle;Signal;HPM_P1;HPM_P2
2023/07/15 00:00:58;;;;;;;2.83;1.80;;;23.10;99.90;;;;;;5053576;28;20534;-52
2023/07/15 00:03:23;;;;;;;3.65;2.10;;;23.10;99.90;;;;;;5052382;28;20013;-54
2023/07/15 00:05:49;;;;;;;2.50;1.90;;;23.10;99.90;;;;;;5052557;28;20163;-55
2023/07/15 00:08:15;;;;;;;6.10;1.65;;;23.10;99.90;;;;;;5051250;28;20032;-54
2023/07/15 00:10:46;;;;;;;6.00;2.05;;;23.20;99.90;;;;;;5051139;28;20032;-55
2023/07/15 00:13:13;;;;;;;4.57;2.67;;;23.20;99.90;;;;;;5050981;28;20029;-54
2023/07/15 00:15:40;;;;;;;3.38;2.13;;;23.30;99.90;;;;;;5053554;28;20496;-51
2023/07/15 00:18:06;;;;;;;2.17;1.55;;;23.30;99.90;;;;;;5049587;28;20522;-54
2023/07/15 00:20:35;;;;;;;;;;;23.20;99.90;;;;;;5051566;28;20466;-52
2023/07/15 00:23:01;;;;;;;3.53;1.67;;;23.20;99.90;;;;;;5051468;28;19940;-55
2023/07/15 00:25:26;;;;;;;3.67;1.60;;;23.10;99.90;;;;;;5052729;28;20448;-55
2023/07/15 00:27:52;;;;;;;3.97;1.73;;;23.10;99.90;;;;;;5033441;28;20022;-55
2023/07/15 00:30:21;;;;;;;3.63;1.83;;;23.10;99.90;;;;;;5050339;28;20497;-55
2023/07/15 00:32:49;;;;;;;2.38;2.17;;;23.00;99.90;;;;;;5033623;28;20036;-55
2023/07/15 00:35:20;;;;;;;4.38;1.77;;;23.00;99.90;;;;;;5040849;28;20086;-54
2023/07/15 00:37:47;;;;;;;7.00;1.83;;;23.00;99.90;;;;;;5050914;28;20021;-56
2023/07/15 00:40:13;;;;;;;1.50;1.27;;;23.00;99.90;;;;;;5051380;28;20416;-54
2023/07/15 00:43:02;;;;;;;1.98;1.40;;;23.00;99.90;;;;;;5037738;28;20495;-54
2023/07/15 00:45:27;;;;;;;3.97;1.58;;;23.10;99.90;;;;;;5051818;28;20025;-56
2023/07/15 00:48:21;;;;;;;5.05;1.73;;;23.10;99.90;;;;;;5053076;28;20127;-56
2023/07/15 00:50:47;;;;;;;6.22;1.60;;;23.20;99.90;;;;;;5053021;28;20082;-56
2023/07/15 00:53:13;;;;;;;11.38;1.95;;;23.20;99.90;;;;;;5052961;28;20025;-54
2023/07/15 00:55:38;;;;;;;1.52;1.40;;;23.20;99.90;;;;;;5052796;28;20033;-55
2023/07/15 00:58:04;;;;;;;1.70;1.45;;;23.30;99.90;;;;;;5052841;28;20025;-54
2023/07/15 01:00:34;;;;;;;6.28;1.55;;;23.40;99.90;;;;;;5051582;28;20036;-60
2023/07/15 01:03:00;;;;;;;1.65;1.33;;;23.30;99.90;;;;;;5051551;28;20120;-42
2023/07/15 01:05:27;;;;;;;1.50;1.40;;;23.30;99.90;;;;;;5050138;28;20111;-55
2023/07/15 01:07:53;;;;;;;2.55;1.52;;;23.30;99.90;;;;;;5052609;28;20021;-56
2023/07/15 01:10:19;;;;;;;3.63;1.50;;;23.30;99.90;;;;;;5052662;28;20036;-54
2023/07/15 01:12:44;;;;;;;2.03;1.45;;;23.30;99.90;;;;;;5052705;28;20500;-56
2023/07/15 01:15:10;;;;;;;5.05;1.30;;;23.30;99.90;;;;;;5048263;28;20064;-56
2023/07/15 01:17:36;;;;;;;3.00;1.50;;;23.20;99.90;;;;;;5051407;28;20528;-55
2023/07/15 01:20:03;;;;;;;2.75;1.50;;;23.20;99.90;;;;;;5050349;28;20052;-63
2023/07/15 01:22:29;;;;;;;2.33;1.50;;;23.10;99.90;;;;;;5052891;28;20040;-56
2023/07/15 01:24:54;;;;;;;4.55;1.90;;;23.10;99.90;;;;;;5052444;28;20020;-53
2023/07/15 01:27:20;;;;;;;8.57;2.10;;;23.00;99.90;;;;;;5066670;28;20032;-56
2023/07/15 01:29:46;;;;;;;6.97;1.63;;;23.00;99.90;;;;;;5062816;28;20017;-53
2023/07/15 01:32:11;;;;;;;5.95;1.42;;;23.00;99.90;;;;;;5032618;28;20063;-57
2023/07/15 01:34:37;;;;;;;3.33;1.63;;;23.00;99.90;;;;;;5043831;28;20021;-56
2023/07/15 01:37:03;;;;;;;1.98;1.58;;;23.00;99.90;;;;;;5055533;28;20095;-53
2023/07/15 01:39:29;;;;;;;4.22;1.48;;;23.00;99.90;;;;;;5054707;28;20040;-52
2023/07/15 01:41:58;;;;;;;1.70;1.60;;;22.90;99.90;;;;;;5042055;28;20067;-57
2023/07/15 01:44:24;;;;;;;3.38;1.45;;;22.90;99.90;;;;;;5036088;28;20382;-56
2023/07/15 01:46:50;;;;;;;3.97;1.73;;;22.80;99.90;;;;;;5037103;28;20109;-56
2023/07/15 01:49:16;;;;;;;6.78;1.50;;;22.70;99.90;;;;;;5036195;28;20308;-56
2023/07/15 01:51:42;;;;;;;8.80;1.50;;;22.60;99.90;;;;;;5047152;28;20037;-56
2023/07/15 01:54:07;;;;;;;2.17;1.50;;;22.50;99.90;;;;;;5055270;28;20400;-55
2023/07/15 01:56:33;;;;;;;2.08;1.20;;;22.50;99.90;;;;;;5056157;28;20039;-57
2023/07/15 01:58:59;;;;;;;7.47;1.40;;;22.40;99.90;;;;;;5055933;28;20397;-53
2023/07/15 02:01:26;;;;;;;2.00;1.40;;;22.40;99.90;;;;;;5056041;28;20154;-57
2023/07/15 02:03:51;;;;;;;7.35;1.67;;;22.30;99.90;;;;;;5055727;28;20064;-55
2023/07/15 02:06:17;;;;;;;1.50;1.30;;;22.30;99.90;;;;;;5055516;28;20413;-57
2023/07/15 02:08:43;;;;;;;5.32;1.50;;;22.20;99.90;;;;;;5052367;28;20140;-58
2023/07/15 02:11:09;;;;;;;4.32;1.63;;;22.10;99.90;;;;;;5048974;28;20025;-58
2023/07/15 02:13:34;;;;;;;3.72;2.10;;;22.10;99.90;;;;;;5053221;28;20041;-54
2023/07/15 02:16:00;;;;;;;2.35;1.50;;;22.00;99.90;;;;;;5055397;28;20025;-57
2023/07/15 02:18:25;;;;;;;3.30;1.73;;;21.90;99.90;;;;;;5055197;28;20036;-57
2023/07/15 02:20:52;;;;;;;2.25;1.40;;;21.80;99.90;;;;;;5055833;28;20028;-55
2023/07/15 02:23:17;;;;;;;2.05;1.40;;;21.70;99.90;;;;;;5054493;28;20037;-56
2023/07/15 02:25:43;;;;;;;2.25;1.60;;;21.70;99.90;;;;;;5055559;28;20389;-54
2023/07/15 02:28:08;;;;;;;3.70;2.22;;;21.60;99.90;;;;;;5051736;28;20430;-55
2023/07/15 02:30:34;;;;;;;3.80;1.80;;;21.50;99.90;;;;;;5055883;28;20483;-56
2023/07/15 02:33:01;;;;;;;3.20;1.77;;;21.50;99.90;;;;;;5053988;28;20386;-56
2023/07/15 02:35:27;;;;;;;3.28;1.13;;;21.50;99.90;;;;;;5055679;28;20112;-56
2023/07/15 02:37:55;;;;;;;2.83;1.60;;;21.40;99.90;;;;;;5055799;28;20043;-55
2023/07/15 02:40:20;;;;;;;5.05;2.13;;;21.40;99.90;;;;;;5053674;28;20309;-56
2023/07/15 02:42:46;;;;;;;4.78;2.20;;;21.30;99.90;;;;;;5055399;28;20021;-57
2023/07/15 02:45:15;;;;;;;2.72;1.88;;;21.30;99.90;;;;;;5053418;28;20074;-57
2023/07/15 02:47:41;;;;;;;7.72;1.83;;;21.20;99.90;;;;;;5055373;28;20124;-56
2023/07/15 02:50:08;;;;;;;4.95;2.28;;;21.20;99.90;;;;;;5055257;28;20056;-56
2023/07/15 02:52:35;;;;;;;3.53;1.63;;;21.10;99.90;;;;;;5053915;28;20056;-55
2023/07/15 02:55:05;;;;;;;2.63;1.73;;;21.10;99.90;;;;;;5055123;28;20029;-57
2023/07/15 02:57:32;;;;;;;2.75;1.80;;;21.10;99.90;;;;;;5055084;28;20029;-57
2023/07/15 02:59:57;;;;;;;4.57;1.60;;;21.10;99.90;;;;;;5053826;28;20017;-54
2023/07/15 03:02:23;;;;;;;4.45;1.25;;;21.10;99.90;;;;;;5054268;28;20438;-56
2023/07/15 03:04:50;;;;;;;2.63;1.88;;;21.10;99.90;;;;;;5054987;28;20035;-54
2023/07/15 03:07:16;;;;;;;1.60;1.50;;;21.10;99.90;;;;;;5054972;28;20059;-59
2023/07/15 03:09:43;;;;;;;6.32;2.10;;;21.00;99.90;;;;;;5054862;28;20032;-56
2023/07/15 03:12:09;;;;;;;3.80;1.52;;;21.00;99.90;;;;;;5055078;28;20036;-57
2023/07/15 03:14:35;;;;;;;4.15;1.70;;;21.00;99.90;;;;;;5054719;28;20029;-56
2023/07/15 03:17:01;;;;;;;4.60;1.77;;;21.10;99.90;;;;;;5061955;28;20124;-57
2023/07/15 03:19:27;;;;;;;2.43;1.43;;;21.10;99.90;;;;;;5070051;28;20017;-57
2023/07/15 03:21:53;;;;;;;5.70;1.75;;;21.10;99.90;;;;;;5063011;28;20086;-56
2023/07/15 03:24:19;;;;;;;2.17;1.33;;;21.10;99.90;;;;;;5074516;28;20584;-55
2023/07/15 03:26:44;;;;;;;4.15;1.63;;;21.10;99.90;;;;;;5073683;28;20044;-57
2023/07/15 03:29:11;;;;;;;4.18;2.00;;;21.10;99.90;;;;;;5074489;28;20052;-57
2023/07/15 03:31:36;;;;;;;3.05;1.65;;;21.10;99.90;;;;;;5073099;28;20115;-56
2023/07/15 03:34:02;;;;;;;3.25;1.60;;;21.10;99.90;;;;;;5071349;28;20507;-58
2023/07/15 03:36:28;;;;;;;2.28;1.70;;;21.10;99.90;;;;;;5073283;28;20501;-56
2023/07/15 03:38:54;;;;;;;4.13;1.85;;;21.00;99.90;;;;;;5074364;28;20156;-56
2023/07/15 03:41:19;;;;;;;2.92;2.17;;;21.10;99.90;;;;;;5074246;28;20031;-57
2023/07/15 03:43:45;;;;;;;3.25;1.50;;;21.10;99.90;;;;;;5074207;28;20027;-56
2023/07/15 03:46:12;;;;;;;2.03;1.60;;;21.00;99.90;;;;;;5072532;28;20029;-55
2023/07/15 03:48:38;;;;;;;3.22;1.60;;;21.00;99.90;;;;;;5074488;28;20071;-58
2023/07/15 03:51:06;;;;;;;3.92;2.05;;;21.10;99.90;;;;;;5067696;28;20028;-56
2023/07/15 03:53:32;;;;;;;1.35;1.20;;;21.10;99.90;;;;;;5074314;28;20511;-57
2023/07/15 03:55:57;;;;;;;1.60;1.48;;;21.10;99.90;;;;;;5071504;28;20032;-55
2023/07/15 03:58:23;;;;;;;8.73;1.90;;;21.20;99.90;;;;;;5073815;28;20063;-60
2023/07/15 04:00:49;;;;;;;1.95;1.75;;;21.20;99.90;;;;;;5073856;28;20020;-61
2023/07/15 04:03:14;;;;;;;2.85;1.30;;;21.20;99.90;;;;;;5073816;28;20029;-57
2023/07/15 04:05:40;;;;;;;1.52;1.42;;;21.20;99.90;;;;;;5066150;28;20028;-55
2023/07/15 04:08:05;;;;;;;2.05;1.60;;;21.30;99.90;;;;;;5069444;28;20039;-56
2023/07/15 04:10:31;;;;;;;1.90;1.67;;;21.30;99.90;;;;;;5073953;28;20028;-56
2023/07/15 04:12:57;;;;;;;3.20;1.02;;;21.30;99.90;;;;;;5073653;28;20025;-57
2023/07/15 04:15:22;;;;;;;3.58;1.15;;;21.30;99.90;;;;;;5070517;28;20033;-56
2023/07/15 04:17:48;;;;;;;3.42;1.13;;;21.30;99.90;;;;;;5051404;28;20657;-57
2023/07/15 04:20:15;;;;;;;1.88;1.15;;;21.30;99.90;;;;;;5042179;28;20029;-57
2023/07/15 04:22:42;;;;;;;2.88;1.52;;;21.40;99.90;;;;;;5053805;28;20025;-57
2023/07/15 04:25:10;;;;;;;12.07;1.60;;;21.40;99.90;;;;;;5061955;28;20077;-56
2023/07/15 04:27:36;;;;;;;1.85;1.42;;;21.40;99.90;;;;;;5073331;28;20021;-55
2023/07/15 04:30:03;;;;;;;2.63;1.70;;;21.40;99.90;;;;;;5070357;28;20020;-57
2023/07/15 04:32:28;;;;;;;4.13;1.80;;;21.40;99.90;;;;;;5073275;28;20028;-54
2023/07/15 04:34:54;;;;;;;3.50;1.20;;;21.50;99.90;;;;;;5068779;28;20028;-57
2023/07/15 04:37:20;;;;;;;4.32;1.70;;;21.50;99.90;;;;;;5073036;28;20507;-56
2023/07/15 04:39:45;;;;;;;1.13;1.10;;;21.60;99.90;;;;;;5073213;28;20029;-57
2023/07/15 04:42:11;;;;;;;1.50;1.40;;;21.60;99.90;;;;;;5068650;28;20012;-55
2023/07/15 04:44:37;;;;;;;3.45;1.50;;;21.60;99.90;;;;;;5073333;28;20024;-54
2023/07/15 04:47:02;;;;;;;1.58;1.20;;;21.60;99.90;;;;;;5073358;28;20508;-53
2023/07/15 04:49:28;;;;;;;5.78;1.35;;;21.60;99.90;;;;;;5066573;28;20025;-67
2023/07/15 04:51:54;;;;;;;7.53;1.30;;;21.60;99.90;;;;;;5073023;28;20035;-56
2023/07/15 04:54:20;;;;;;;1.67;1.50;;;21.70;99.90;;;;;;5071677;28;20032;-58
2023/07/15 04:56:45;;;;;;;1.30;1.20;;;21.70;99.90;;;;;;5071468;28;20071;-57
2023/07/15 04:59:11;;;;;;;4.10;1.55;;;21.70;99.90;;;;;;5072869;28;20465;-55
2023/07/15 05:01:37;;;;;;;4.05;1.52;;;21.70;99.90;;;;;;5072894;28;20029;-56
2023/07/15 05:04:03;;;;;;;2.45;1.58;;;21.70;99.90;;;;;;5067326;28;20398;-57
2023/07/15 05:06:29;;;;;;;3.67;2.17;;;21.80;99.90;;;;;;5041746;28;20056;-54
2023/07/15 05:08:55;;;;;;;4.90;1.83;;;21.70;99.90;;;;;;5052538;28;20052;-57
2023/07/15 05:11:21;;;;;;;1.98;1.23;;;21.70;99.90;;;;;;5052712;28;20032;-60
2023/07/15 05:13:47;;;;;;;2.53;1.75;;;21.80;99.90;;;;;;5050061;28;20452;-57
2023/07/15 05:16:16;;;;;;;3.50;1.45;;;21.80;99.90;;;;;;5055788;28;20116;-55
2023/07/15 05:18:42;;;;;;;1.67;1.58;;;21.80;99.90;;;;;;5032767;28;20536;-57
2023/07/15 05:21:07;;;;;;;1.45;1.35;;;21.90;99.90;;;;;;5065244;28;20024;-57
2023/07/15 05:23:34;;;;;;;3.08;1.42;;;21.90;99.90;;;;;;5070984;28;20025;-57
2023/07/15 05:26:00;;;;;;;4.00;1.23;;;21.90;99.90;;;;;;5072680;28;20063;-55
2023/07/15 05:28:30;;;;;;;3.53;1.60;;;21.90;99.90;;;;;;5072619;28;20370;-56
2023/07/15 05:31:00;;;;;;;4.57;1.60;;;21.90;99.90;;;;;;5072607;28;20025;-55
2023/07/15 05:33:25;;;;;;;2.00;1.75;;;21.90;99.90;;;;;;5063051;28;20025;-57
2023/07/15 05:35:52;;;;;;;3.28;1.30;;;21.90;99.90;;;;;;5069916;28;20481;-54
2023/07/15 05:38:22;;;;;;;2.03;1.45;;;21.90;99.90;;;;;;5070232;28;20070;-53
2023/07/15 05:40:48;;;;;;;2.92;1.10;;;21.90;99.90;;;;;;5071597;28;20111;-58
2023/07/15 05:43:14;;;;;;;6.20;2.67;;;22.00;99.90;;;;;;5063201;28;20429;-57
2023/07/15 05:45:40;;;;;;;2.65;1.30;;;22.00;99.90;;;;;;5052408;28;20473;-57
2023/07/15 05:48:06;;;;;;;2.13;1.30;;;22.00;99.90;;;;;;5050951;28;20032;-67
2023/07/15 05:50:36;;;;;;;2.85;1.05;;;22.00;99.90;;;;;;5070440;28;20035;-54
2023/07/15 05:53:06;;;;;;;2.83;1.27;;;22.10;99.90;;;;;;5070955;28;20028;-57
2023/07/15 05:55:33;;;;;;;1.92;1.20;;;22.10;99.90;;;;;;5070986;28;20028;-57
2023/07/15 05:57:59;;;;;;;1.75;1.30;;;22.00;99.90;;;;;;5072223;28;20436;-62
2023/07/15 06:00:24;;;;;;;3.90;1.23;;;22.10;99.90;;;;;;5071415;28;20037;-57
2023/07/15 06:02:50;;;;;;;2.08;1.70;;;22.00;99.90;;;;;;5067323;28;20032;-57
2023/07/15 06:05:16;;;;;;;1.13;0.80;;;22.10;99.90;;;;;;5072263;28;20028;-57
2023/07/15 06:07:42;;;;;;;3.17;1.92;;;22.20;99.90;;;;;;5072501;28;20025;-55
2023/07/15 06:10:07;;;;;;;1.13;1.02;;;22.20;99.90;;;;;;5070946;28;20024;-56
2023/07/15 06:12:33;;;;;;;2.38;1.50;;;22.20;99.90;;;;;;5066919;28;20035;-57
2023/07/15 06:14:59;;;;;;;3.22;1.55;;;22.20;99.90;;;;;;5072426;28;20393;-54
2023/07/15 06:17:25;;;;;;;3.28;1.10;;;22.20;99.90;;;;;;5053718;28;20103;-56
2023/07/15 06:19:50;;;;;;;7.20;1.30;;;22.30;99.90;;;;;;5067382;28;20098;-57
2023/07/15 06:22:16;;;;;;;0.93;0.90;;;22.40;99.90;;;;;;5074155;28;20021;-57
2023/07/15 06:24:42;;;;;;;0.90;0.90;;;22.50;99.90;;;;;;5075987;28;20099;-56
2023/07/15 06:27:08;;;;;;;3.83;1.48;;;22.50;99.90;;;;;;5063528;28;20117;-57
2023/07/15 06:29:34;;;;;;;3.90;1.88;;;22.60;99.90;;;;;;5056008;28;20033;-53
2023/07/15 06:32:00;;;;;;;5.05;1.00;;;22.70;99.90;;;;;;5053876;28;20079;-56
2023/07/15 06:34:25;;;;;;;1.15;0.90;;;22.90;99.90;;;;;;5073570;28;20032;-57
2023/07/15 06:36:51;;;;;;;1.25;0.95;;;23.10;99.90;;;;;;5064938;28;20059;-56
2023/07/15 06:39:17;;;;;;;1.42;0.70;;;23.20;99.90;;;;;;5054527;28;20022;-64
2023/07/15 06:41:43;;;;;;;1.38;0.88;;;23.20;99.90;;;;;;5067322;28;20042;-54
2023/07/15 06:44:08;;;;;;;1.00;0.80;;;23.20;99.90;;;;;;5075481;28;20385;-56
2023/07/15 06:46:34;;;;;;;1.00;0.57;;;23.80;99.90;;;;;;5075439;28;20029;-56
2023/07/15 06:49:00;;;;;;;2.58;0.82;;;24.40;99.90;;;;;;5069688;28;20036;-49
2023/07/15 06:51:26;;;;;;;3.63;0.60;;;25.30;99.90;;;;;;5074022;28;20058;-57
2023/07/15 06:53:51;;;;;;;2.67;0.38;;;25.90;99.90;;;;;;5070107;28;20029;-55
2023/07/15 06:56:17;;;;;;;0.50;0.50;;;27.10;99.90;;;;;;5050614;28;20030;-57
2023/07/15 06:58:42;;;;;;;1.80;0.50;;;28.30;99.90;;;;;;5045086;28;20104;-56
2023/07/15 07:01:08;;;;;;;0.52;0.40;;;28.30;99.90;;;;;;5049178;28;20028;-55
2023/07/15 07:03:34;;;;;;;0.30;0.30;;;27.50;99.90;;;;;;5052238;28;20025;-50
2023/07/15 07:06:01;;;;;;;1.17;0.55;;;26.40;99.90;;;;;;5054221;28;20112;-56
2023/07/15 07:08:27;;;;;;;0.38;0.30;;;25.50;99.90;;;;;;5054876;28;20021;-57
2023/07/15 07:10:53;;;;;;;0.90;0.50;;;24.90;99.90;;;;;;5054925;28;20021;-57
2023/07/15 07:13:19;;;;;;;1.67;0.70;;;25.60;99.90;;;;;;5064060;28;20473;-57
2023/07/15 07:15:45;;;;;;;3.60;0.40;;;27.10;99.90;;;;;;5068616;28;20055;-57
2023/07/15 07:18:11;;;;;;;1.13;0.57;;;27.70;99.90;;;;;;5058588;28;20028;-53
2023/07/15 07:20:41;;;;;;;0.50;0.50;;;28.40;99.90;;;;;;5074715;28;20017;-50
2023/07/15 07:23:07;;;;;;;0.63;0.50;;;28.80;99.90;;;;;;5073018;28;20486;-57
2023/07/15 07:25:33;;;;;;;1.00;0.60;;;28.00;99.90;;;;;;5059992;28;20059;-56
2023/07/15 07:27:59;;;;;;;1.52;0.57;;;26.90;99.90;;;;;;5053791;28;20036;-55
2023/07/15 07:30:24;;;;;;;0.80;0.60;;;25.90;99.90;;;;;;5053754;28;20421;-57
2023/07/15 07:32:50;;;;;;;0.77;0.50;;;25.20;99.90;;;;;;5056042;28;20492;-51
2023/07/15 07:35:17;;;;;;;1.13;0.50;;;24.60;99.90;;;;;;5074174;28;20526;-66
2023/07/15 07:37:43;;;;;;;1.05;0.47;;;24.40;99.90;;;;;;5073219;28;20078;-57
2023/07/15 07:40:09;;;;;;;1.67;0.50;;;24.20;99.90;;;;;;5073901;28;20108;-54
2023/07/15 07:42:35;;;;;;;1.05;0.50;;;23.90;99.90;;;;;;5067692;28;20009;-44
2023/07/15 07:45:10;;;;;;;0.93;0.47;;;23.70;99.90;;;;;;5054286;28;20493;-50
2023/07/15 07:47:36;;;;;;;1.02;0.50;;;23.60;99.90;;;;;;5047024;28;20037;-51
2023/07/15 07:50:02;;;;;;;6.70;0.90;;;23.60;99.90;;;;;;5050230;28;20385;-53
2023/07/15 07:52:27;;;;;;;1.45;0.75;;;23.70;99.90;;;;;;5053284;28;20493;-53
2023/07/15 07:54:53;;;;;;;0.80;0.68;;;23.80;99.90;;;;;;5037267;28;20466;-57
2023/07/15 07:57:19;;;;;;;0.75;0.50;;;24.00;99.90;;;;;;5053693;28;20539;-56
2023/07/15 07:59:44;;;;;;;2.63;0.50;;;24.00;99.90;;;;;;5053444;28;20029;-56
2023/07/15 08:02:10;;;;;;;0.43;0.43;;;24.00;99.90;;;;;;5053640;28;20086;-56
2023/07/15 08:04:35;;;;;;;0.68;0.43;;;23.90;99.90;;;;;;5052770;28;20070;-53
2023/07/15 08:07:01;;;;;;;0.75;0.55;;;23.90;99.90;;;;;;5053172;28;20059;-57
2023/07/15 08:09:27;;;;;;;1.40;0.77;;;23.90;99.90;;;;;;5053154;28;20103;-55
2023/07/15 08:11:52;;;;;;;1.13;0.70;;;24.00;99.90;;;;;;5053716;28;20096;-55
2023/07/15 08:14:18;;;;;;;1.13;0.40;;;23.90;99.90;;;;;;5053657;28;20029;-56
2023/07/15 08:16:44;;;;;;;0.85;0.60;;;23.90;99.90;;;;;;5053239;28;20049;-55
2023/07/15 08:19:10;;;;;;;2.60;0.60;;;23.90;99.90;;;;;;5053500;28;20519;-57
2023/07/15 08:21:36;;;;;;;4.10;0.60;;;24.10;99.90;;;;;;5052750;28;20092;-56
2023/07/15 08:24:02;;;;;;;1.75;0.55;;;24.40;99.90;;;;;;5053523;28;20021;-55
2023/07/15 08:26:28;;;;;;;0.50;0.50;;;24.50;99.90;;;;;;5053239;28;20123;-57
2023/07/15 08:28:55;;;;;;;1.42;0.70;;;24.50;99.90;;;;;;5053327;28;20037;-52
2023/07/15 08:31:27;;;;;;;1.05;0.45;;;24.60;99.90;;;;;;5053619;28;20017;-67
2023/07/15 08:33:53;;;;;;;0.70;0.52;;;24.80;99.90;;;;;;5053498;28;20531;-58
2023/07/15 08:36:19;;;;;;;0.55;0.55;;;25.30;99.90;;;;;;5052583;28;20025;-56
2023/07/15 08:38:45;;;;;;;0.65;0.50;;;25.40;99.90;;;;;;5072876;28;20079;-55
2023/07/15 08:41:12;;;;;;;0.60;0.57;;;25.60;99.90;;;;;;5057843;28;20021;-52
2023/07/15 08:43:38;;;;;;;0.93;0.47;;;25.90;99.90;;;;;;5049569;28;20033;-57
2023/07/15 08:46:21;;;;;;;1.23;0.50;;;26.30;99.90;;;;;;5053058;28;20029;-55
2023/07/15 08:48:47;;;;;;;0.57;0.50;;;26.70;99.90;;;;;;5048358;28;20482;-53
2023/07/15 08:51:13;;;;;;;2.72;0.40;;;27.20;99.90;;;;;;5048999;28;20079;-62
2023/07/15 08:53:39;;;;;;;1.42;0.68;;;27.70;99.90;;;;;;5050697;28;20056;-53
2023/07/15 08:56:05;;;;;;;0.50;0.50;;;27.90;99.90;;;;;;5053079;28;20029;-49
2023/07/15 08:58:31;;;;;;;0.38;0.38;;;28.10;99.90;;;;;;5045398;28;20394;-46
2023/07/15 09:00:57;;;;;;;1.58;0.70;;;28.50;99.90;;;;;;5053068;28;20025;-54
2023/07/15 09:03:23;;;;;;;2.20;0.70;;;28.60;99.90;;;;;;5051933;28;20032;-56
2023/07/15 09:05:49;;;;;;;1.60;0.85;;;28.70;99.90;;;;;;5051588;28;20116;-55
2023/07/15 09:08:15;;;;;;;2.90;0.75;;;28.70;99.90;;;;;;5055531;28;20128;-47
2023/07/15 09:10:51;;;;;;;0.57;0.57;;;28.90;99.90;;;;;;5051009;28;20021;-45
2023/07/15 09:13:28;;;;;;;3.53;0.98;;;28.80;99.90;;;;;;5050363;28;20385;-54
2023/07/15 09:15:54;;;;;;;1.95;1.13;;;28.60;99.90;;;;;;5051341;28;20052;-55
2023/07/15 09:18:21;;;;;;;0.73;0.73;;;28.10;99.90;;;;;;5037636;28;20439;-59
2023/07/15 09:20:47;;;;;;;1.52;0.93;;;27.70;99.90;;;;;;5056939;28;20029;-52
2023/07/15 09:23:14;;;;;;;1.75;0.60;;;27.50;99.90;;;;;;5056770;28;20466;-56
2023/07/15 09:25:52;;;;;;;0.60;0.60;;;27.10;99.90;;;;;;5049938;28;20021;-57
2023/07/15 09:28:19;;;;;;;2.10;1.20;;;26.90;99.90;;;;;;5052250;28;20033;-56
2023/07/15 09:30:45;;;;;;;3.78;0.82;;;26.80;99.90;;;;;;5043450;28;20053;-56
2023/07/15 09:33:30;;;;;;;0.80;0.80;;;26.50;99.90;;;;;;5032609;28;20049;-57
2023/07/15 09:35:56;;;;;;;2.25;1.30;;;26.30;99.90;;;;;;5064303;28;20033;-56
2023/07/15 09:38:22;;;;;;;0.70;0.70;;;26.10;99.90;;;;;;5052402;28;20071;-57
2023/07/15 09:40:49;;;;;;;2.28;0.82;;;26.20;99.90;;;;;;5052061;28;20087;-54
2023/07/15 09:43:15;;;;;;;2.40;1.20;;;26.00;99.90;;;;;;5047607;28;20029;-52
2023/07/15 09:45:41;;;;;;;3.33;1.20;;;25.80;99.90;;;;;;5039383;28;20466;-56
2023/07/15 09:48:12;;;;;;;1.25;0.80;;;25.60;99.90;;;;;;5051978;28;20056;-56
2023/07/15 09:50:39;;;;;;;4.93;1.00;;;25.50;99.90;;;;;;5052128;28;20067;-54
2023/07/15 09:53:06;;;;;;;14.43;1.77;;;25.30;99.90;;;;;;5052613;28;20493;-48
2023/07/15 09:55:34;;;;;;;3.38;1.15;;;25.10;99.90;;;;;;5048005;28;20104;-56
2023/07/15 09:58:07;;;;;;;1.38;0.90;;;24.90;99.90;;;;;;5055830;28;20428;-57
2023/07/15 10:00:35;;;;;;;3.05;0.98;;;24.80;99.90;;;;;;5054875;28;20478;-55
2023/07/15 10:03:03;;;;;;;2.47;1.00;;;24.70;99.90;;;;;;5052001;28;20014;-57
2023/07/15 10:05:31;;;;;;;3.10;1.13;;;24.80;99.90;;;;;;5050938;28;20025;-56
2023/07/15 10:07:57;;;;;;;5.00;1.05;;;24.80;99.90;;;;;;5056197;28;20536;-57
2023/07/15 10:10:22;;;;;;;2.33;1.48;;;24.80;99.90;;;;;;5055946;28;20100;-55
2023/07/15 10:12:49;;;;;;;2.58;1.13;;;24.70;99.90;;;;;;5053040;28;20025;-52
2023/07/15 10:15:16;;;;;;;2.08;1.20;;;24.60;99.90;;;;;;5056042;28;20025;-57
2023/07/15 10:17:44;;;;;;;1.23;1.10;;;24.70;99.90;;;;;;5057198;28;20061;-54
2023/07/15 10:20:11;;;;;;;4.03;1.15;;;25.00;99.90;;;;;;5065428;28;20029;-57
2023/07/15 10:22:43;;;;;;;1.23;0.95;;;25.20;99.90;;;;;;5050509;28;20137;-57
2023/07/15 10:25:11;;;;;;;1.30;1.13;;;25.40;99.90;;;;;;5055631;28;20040;-55
2023/07/15 10:27:38;;;;;;;1.67;1.10;;;25.50;99.90;;;;;;5053933;28;20101;-57
2023/07/15 10:30:23;;;;;;;1.63;1.30;;;25.80;99.90;;;;;;5062138;28;20032;-53
2023/07/15 10:33:01;;;;;;;1.30;1.20;;;26.10;99.90;;;;;;5064469;28;20419;-56
2023/07/15 10:35:28;;;;;;;2.10;1.00;;;26.40;99.90;;;;;;5042647;28;20083;-51
2023/07/15 10:37:57;;;;;;;3.08;1.20;;;26.40;99.90;;;;;;5055625;28;20111;-52
2023/07/15 10:41:00;;;;;;;1.30;1.02;;;26.10;99.90;;;;;;5048107;28;20377;-56
2023/07/15 10:43:34;;;;;;;0.90;0.90;;;25.70;99.90;;;;;;5060214;28;20129;-56
2023/07/15 10:46:05;;;;;;;2.95;1.20;;;25.60;99.90;;;;;;5051821;28;20064;-55
2023/07/15 10:48:31;;;;;;;1.40;1.00;;;25.60;99.90;;;;;;5064693;28;20135;-57
2023/07/15 10:51:06;;;;;;;2.05;1.33;;;25.70;99.90;;;;;;5052808;28;20111;-52
2023/07/15 10:53:32;;;;;;;4.57;1.17;;;25.80;99.90;;;;;;5053683;28;20086;-58
2023/07/15 10:56:00;;;;;;;1.92;1.38;;;26.00;99.90;;;;;;5053752;28;20478;-48
2023/07/15 10:58:27;;;;;;;4.45;1.08;;;26.20;99.90;;;;;;5049977;28;20017;-55
2023/07/15 11:01:01;;;;;;;1.33;1.13;;;26.20;99.90;;;;;;5053188;28;20027;-54
2023/07/15 11:03:28;;;;;;;1.23;1.13;;;26.20;99.90;;;;;;5055055;28;20052;-55
2023/07/15 11:05:58;;;;;;;1.35;1.08;;;26.10;99.90;;;;;;5060456;28;20017;-56
2023/07/15 11:08:25;;;;;;;2.63;1.23;;;26.10;99.90;;;;;;5066294;28;20508;-55
2023/07/15 11:10:57;;;;;;;2.47;1.02;;;26.10;99.90;;;;;;5055220;28;20056;-49
2023/07/15 11:13:23;;;;;;;2.00;1.20;;;26.20;99.90;;;;;;5052715;28;20029;-54
2023/07/15 11:15:48;;;;;;;0.93;0.93;;;26.30;99.90;;;;;;5053964;28;20039;-54
2023/07/15 11:18:19;;;;;;;0.90;0.90;;;26.30;99.90;;;;;;5054648;28;20049;-53
2023/07/15 11:20:46;;;;;;;0.73;0.73;;;26.30;99.90;;;;;;5054430;28;20033;-55
2023/07/15 11:23:12;;;;;;;;;;;26.30;99.90;;;;;;5046597;28;20513;-53
2023/07/15 11:25:38;;;;;;;1.33;1.02;;;26.30;99.90;;;;;;5054951;28;19904;-54
2023/07/15 11:28:04;;;;;;;1.85;1.25;;;26.30;99.90;;;;;;5052818;28;20040;-54
2023/07/15 11:30:43;;;;;;;3.15;1.25;;;26.10;99.90;;;;;;5052676;28;20363;-54
2023/07/15 11:33:10;;;;;;;1.92;1.08;;;26.10;99.90;;;;;;5050160;28;20021;-51
2023/07/15 11:35:38;;;;;;;1.42;1.05;;;26.40;99.90;;;;;;5054444;28;20576;-53
2023/07/15 11:38:15;;;;;;;1.67;1.23;;;26.90;99.90;;;;;;5054436;28;20469;-52
2023/07/15 11:40:53;;;;;;;2.20;1.42;;;27.00;99.90;;;;;;5061099;28;20104;-52
2023/07/15 11:43:24;;;;;;;1.17;1.02;;;27.10;99.90;;;;;;5054077;28;20020;-53
2023/07/15 11:45:54;;;;;;;1.90;1.20;;;27.00;99.90;;;;;;5071579;28;20078;-54
2023/07/15 11:48:23;;;;;;;1.27;0.98;;;26.90;99.90;;;;;;5044070;28;20108;-53
2023/07/15 11:50:49;;;;;;;0.93;0.90;;;27.00;99.90;;;;;;5044323;28;20492;-52
2023/07/15 11:53:30;;;;;;;2.10;1.20;;;27.00;99.90;;;;;;5044035;28;20025;-53
2023/07/15 11:55:57;;;;;;;1.30;1.08;;;26.90;99.90;;;;;;5053281;28;20509;-53
2023/07/15 11:58:42;;;;;;;3.75;1.02;;;27.00;99.90;;;;;;5054292;28;20017;-68
2023/07/15 12:01:13;;;;;;;1.20;0.95;;;26.90;99.90;;;;;;5052490;28;20043;-56
2023/07/15 12:03:42;;;;;;;1.65;1.10;;;26.80;99.90;;;;;;5052539;28;20091;-46
2023/07/15 12:06:20;;;;;;;1.25;0.95;;;26.70;99.90;;;;;;5052806;28;20029;-53
2023/07/15 12:09:10;;;;;;;2.30;1.20;;;26.90;99.90;;;;;;5056593;28;20087;-53
2023/07/15 12:11:36;;;;;;;1.42;1.10;;;27.20;99.90;;;;;;5053663;28;20040;-47
2023/07/15 12:14:03;;;;;;;3.70;0.90;;;27.10;99.90;;;;;;5053719;28;20025;-54
2023/07/15 12:16:31;;;;;;;3.70;1.25;;;27.20;99.90;;;;;;5050485;28;20036;-55
2023/07/15 12:18:58;;;;;;;1.10;1.00;;;27.30;99.90;;;;;;5040517;28;20025;-55
2023/07/15 12:21:25;;;;;;;3.65;1.10;;;27.40;99.90;;;;;;5033706;28;20399;-53
2023/07/15 12:23:50;;;;;;;1.73;1.10;;;27.20;99.90;;;;;;5051663;28;20052;-54
2023/07/15 12:26:18;;;;;;;1.38;1.27;;;27.10;99.90;;;;;;5053784;28;20500;-56
2023/07/15 12:28:43;;;;;;;1.67;1.00;;;27.10;99.90;;;;;;5053463;28;20546;-52
2023/07/15 12:31:09;;;;;;;1.25;0.95;;;27.20;99.90;;;;;;5053749;28;20101;-53
2023/07/15 12:33:35;;;;;;;3.45;1.48;;;27.20;99.90;;;;;;5053048;28;20029;-52
2023/07/15 12:36:02;;;;;;;1.73;0.95;;;27.30;99.90;;;;;;5052690;28;20028;-53
2023/07/15 12:38:28;;;;;;;;;;;27.50;99.90;;;;;;5056751;28;20032;-53
2023/07/15 12:40:54;;;;;;;0.80;0.80;;;27.60;99.90;;;;;;5046450;28;19913;-52
2023/07/15 12:43:20;;;;;;;2.15;1.20;;;27.50;99.90;;;;;;5053178;28;20484;-50
2023/07/15 12:45:47;;;;;;;1.45;1.13;;;27.30;99.90;;;;;;5051877;28;20053;-52
2023/07/15 12:48:12;;;;;;;1.95;1.30;;;27.40;99.90;;;;;;5053135;28;20029;-54